createdAt,value
2018-10-11T00:00:20.463Z,16.34
2018-10-11T00:01:00.770Z,16.34
2018-10-11T00:01:41.220Z,16.37
2018-10-11T00:02:21.526Z,16.36
2018-10-11T00:03:01.990Z,16.36
2018-10-11T00:03:42.390Z,16.29
2018-10-11T00:04:22.824Z,16.34
2018-10-11T00:05:03.260Z,16.34
2018-10-11T00:05:43.874Z,16.34
2018-10-11T00:06:24.340Z,16.4
2018-10-11T00:07:04.714Z,16.29
2018-10-11T00:07:45.183Z,16.29
2018-10-11T00:08:25.603Z,16.33
2018-10-11T00:09:05.970Z,16.26
2018-10-11T00:09:46.456Z,16.3
2018-10-11T00:10:26.734Z,16.36
2018-10-11T00:11:07.135Z,16.36
2018-10-11T00:11:47.502Z,16.34
2018-10-11T00:12:27.982Z,16.37
2018-10-11T00:13:08.446Z,16.36
2018-10-11T00:13:48.809Z,16.37
2018-10-11T00:14:29.229Z,16.4
2018-10-11T00:15:09.686Z,16.4
2018-10-11T00:15:50.105Z,16.4
2018-10-11T00:16:30.519Z,16.42
2018-10-11T00:17:10.953Z,16.41
2018-10-11T00:17:51.283Z,16.5
2018-10-11T00:18:31.730Z,16.45
2018-10-11T00:19:12.149Z,16.45
2018-10-11T00:19:52.612Z,16.5
2018-10-11T00:20:32.918Z,16.48
2018-10-11T00:21:13.330Z,16.45
2018-10-11T00:21:53.756Z,16.42
2018-10-11T00:22:34.209Z,16.47
2018-10-11T00:23:14.574Z,16.47
2018-10-11T00:23:54.966Z,16.44
2018-10-11T00:24:35.412Z,16.45
2018-10-11T00:25:15.803Z,16.47
2018-10-11T00:25:56.218Z,16.47
2018-10-11T00:26:36.603Z,16.5
2018-10-11T00:27:16.983Z,16.52
2018-10-11T00:27:57.381Z,16.48
2018-10-11T00:28:37.816Z,16.41
2018-10-11T00:29:18.220Z,16.51
2018-10-11T00:29:58.621Z,16.51
2018-10-11T00:30:39.072Z,16.5
2018-10-11T00:31:19.488Z,16.57
2018-10-11T00:31:59.816Z,16.51
2018-10-11T00:32:40.212Z,16.5
2018-10-11T00:33:20.597Z,16.52
2018-10-11T00:34:00.907Z,16.41
2018-10-11T00:34:41.435Z,16.44
2018-10-11T00:35:21.763Z,16.51
2018-10-11T00:36:02.198Z,16.5
2018-10-11T00:36:42.608Z,16.48
2018-10-11T00:37:22.989Z,16.5
2018-10-11T00:38:03.497Z,16.5
2018-10-11T00:38:43.884Z,16.47
2018-10-11T00:39:24.315Z,16.4
2018-10-11T00:40:04.649Z,16.4
2018-10-11T00:40:45.129Z,16.4
2018-10-11T00:41:25.496Z,16.36
2018-10-11T00:42:05.961Z,16.42
2018-10-11T00:42:46.313Z,16.36
2018-10-11T00:43:26.766Z,16.37
2018-10-11T00:44:07.142Z,16.32
2018-10-11T00:44:47.551Z,16.29
2018-10-11T00:45:27.960Z,16.25
2018-10-11T00:46:08.329Z,16.23
2018-10-11T00:46:48.747Z,16.14
2018-10-11T00:47:29.190Z,16.1
2018-10-11T00:48:09.577Z,16.13
2018-10-11T00:48:50.046Z,16.08
2018-10-11T00:49:30.468Z,16.11
2018-10-11T00:50:10.767Z,16.06
2018-10-11T00:50:51.247Z,16.06
2018-10-11T00:51:31.626Z,16.04
2018-10-11T00:52:12.078Z,16.07
2018-10-11T00:52:52.514Z,16.06
2018-10-11T00:53:32.903Z,16.07
2018-10-11T00:54:13.263Z,16.04
2018-10-11T00:54:53.641Z,16.07
2018-10-11T00:55:34.057Z,16.08
2018-10-11T00:56:14.474Z,16.1
2018-10-11T00:56:54.896Z,16.11
2018-10-11T00:57:35.275Z,16.14
2018-10-11T00:58:15.850Z,16.11
2018-10-11T00:58:56.261Z,16.11
2018-10-11T00:59:36.612Z,16.17
2018-10-11T01:00:17.038Z,16.18
2018-10-11T01:00:57.499Z,16.16
2018-10-11T01:01:37.811Z,16.13
2018-10-11T01:02:18.195Z,16.08
2018-10-11T01:02:58.567Z,16.17
2018-10-11T01:03:39.029Z,16.1
2018-10-11T01:04:19.445Z,16.16
2018-10-11T01:04:59.895Z,16.08
2018-10-11T01:05:40.315Z,16.08
2018-10-11T01:06:20.705Z,16.08
2018-10-11T01:07:01.015Z,16.06
2018-10-11T01:07:41.464Z,15.98
2018-10-11T01:08:21.932Z,16.03
2018-10-11T01:09:02.245Z,15.95
2018-10-11T01:09:42.641Z,15.96
2018-10-11T01:10:23.069Z,15.92
2018-10-11T01:11:03.465Z,15.93
2018-10-11T01:11:43.912Z,15.92
2018-10-11T01:12:24.290Z,15.99
2018-10-11T01:13:04.631Z,15.92
2018-10-11T01:13:45.003Z,15.96
2018-10-11T01:14:25.521Z,15.95
2018-10-11T01:15:05.923Z,16.01
2018-10-11T01:15:46.323Z,16.03
2018-10-11T01:16:26.769Z,16.03
2018-10-11T01:17:07.158Z,15.99
2018-10-11T01:17:47.682Z,15.96
2018-10-11T01:18:28.071Z,15.98
2018-10-11T01:19:08.522Z,15.98
2018-10-11T01:19:48.904Z,15.93
2018-10-11T01:20:29.369Z,15.92
2018-10-11T01:21:09.805Z,15.93
2018-10-11T01:21:50.276Z,15.88
2018-10-11T01:22:30.674Z,15.85
2018-10-11T01:23:11.035Z,15.85
2018-10-11T01:23:51.565Z,15.84
2018-10-11T01:24:31.842Z,15.76
2018-10-11T01:25:12.277Z,15.74
2018-10-11T01:25:52.663Z,15.71
2018-10-11T01:26:33.064Z,15.71
2018-10-11T01:27:13.402Z,15.64
2018-10-11T01:27:53.820Z,15.62
2018-10-11T01:28:34.255Z,15.62
2018-10-11T01:29:14.641Z,15.51
2018-10-11T01:29:55.249Z,15.53
2018-10-11T01:30:35.534Z,15.44
2018-10-11T01:31:15.775Z,15.43
2018-10-11T01:31:56.376Z,15.35
2018-10-11T01:32:36.703Z,15.41
2018-10-11T01:33:17.115Z,15.35
2018-10-11T01:33:57.510Z,15.4
2018-10-11T01:34:37.939Z,15.41
2018-10-11T01:35:18.300Z,15.4
2018-10-11T01:35:58.699Z,15.33
2018-10-11T01:36:39.103Z,15.38
2018-10-11T01:37:19.533Z,15.33
2018-10-11T01:37:59.945Z,15.38
2018-10-11T01:38:40.384Z,15.28
2018-10-11T01:39:20.775Z,15.41
2018-10-11T01:40:01.244Z,15.38
2018-10-11T01:40:41.505Z,15.41
2018-10-11T01:41:21.958Z,15.3
2018-10-11T01:42:02.399Z,15.44
2018-10-11T01:42:42.817Z,15.33
2018-10-11T01:43:23.158Z,15.38
2018-10-11T01:44:03.519Z,15.4
2018-10-11T01:44:43.965Z,15.41
2018-10-11T01:45:24.368Z,15.41
2018-10-11T01:46:04.763Z,15.38
2018-10-11T01:46:45.114Z,15.38
2018-10-11T01:47:25.511Z,15.3
2018-10-11T01:48:05.917Z,15.34
2018-10-11T01:48:46.336Z,15.33
2018-10-11T01:49:26.717Z,15.3
2018-10-11T01:50:07.134Z,15.3
2018-10-11T01:50:47.514Z,15.27
2018-10-11T01:51:27.936Z,15.31
2018-10-11T01:52:08.357Z,15.3
2018-10-11T01:52:48.784Z,15.3
2018-10-11T01:53:29.072Z,15.33
2018-10-11T01:54:09.556Z,15.33
2018-10-11T01:54:49.958Z,15.3
2018-10-11T01:55:30.412Z,15.34
2018-10-11T01:56:10.813Z,15.33
2018-10-11T01:56:51.331Z,15.22
2018-10-11T01:57:31.534Z,15.2
2018-10-11T01:58:11.969Z,15.22
2018-10-11T01:58:52.372Z,15.15
2018-10-11T01:59:32.796Z,15.19
2018-10-11T02:00:13.200Z,15.07
2018-10-11T02:00:53.566Z,15.03
2018-10-11T02:01:34.099Z,15.04
2018-10-11T02:02:14.493Z,14.97
2018-10-11T02:02:54.960Z,14.91
2018-10-11T02:03:35.469Z,14.94
2018-10-11T02:04:15.748Z,14.78
2018-10-11T02:04:56.218Z,14.78
2018-10-11T02:05:36.587Z,14.72
2018-10-11T02:06:17.052Z,14.75
2018-10-11T02:06:57.405Z,14.82
2018-10-11T02:07:37.788Z,14.79
2018-10-11T02:08:18.208Z,14.78
2018-10-11T02:08:58.591Z,14.69
2018-10-11T02:09:39.149Z,14.75
2018-10-11T02:10:19.508Z,14.75
2018-10-11T02:10:59.904Z,14.74
2018-10-11T02:11:40.286Z,14.71
2018-10-11T02:12:20.691Z,14.74
2018-10-11T02:13:01.131Z,14.72
2018-10-11T02:13:41.509Z,14.74
2018-10-11T02:14:21.929Z,14.83
2018-10-11T02:15:02.322Z,14.86
2018-10-11T02:15:42.764Z,14.78
2018-10-11T02:16:23.181Z,14.8
2018-10-11T02:17:03.630Z,14.91
2018-10-11T02:17:44.021Z,14.9
2018-10-11T02:18:24.351Z,14.97
2018-10-11T02:19:04.844Z,14.9
2018-10-11T02:19:45.251Z,15.01
2018-10-11T02:20:25.655Z,14.95
2018-10-11T02:21:06.066Z,15
2018-10-11T02:21:46.597Z,15.05
2018-10-11T02:22:26.927Z,15.11
2018-10-11T02:23:07.280Z,15.13
2018-10-11T02:23:47.703Z,15.15
2018-10-11T02:24:28.098Z,15.13
2018-10-11T02:25:08.588Z,15.27
2018-10-11T02:25:48.871Z,15.31
2018-10-11T02:26:29.390Z,15.33
2018-10-11T02:27:09.742Z,15.33
2018-10-11T02:27:50.102Z,15.33
2018-10-11T02:28:30.676Z,15.41
2018-10-11T02:29:10.999Z,15.43
2018-10-11T02:29:51.365Z,15.49
2018-10-11T02:30:31.874Z,15.53
2018-10-11T02:31:12.418Z,15.56
2018-10-11T02:31:52.654Z,15.64
2018-10-11T02:32:33.059Z,15.56
2018-10-11T02:33:13.489Z,15.51
2018-10-11T02:33:54.545Z,15.6
2018-10-11T02:34:34.894Z,15.58
2018-10-11T02:35:15.276Z,15.59
2018-10-11T02:35:55.732Z,15.6
2018-10-11T02:36:36.152Z,15.66
2018-10-11T02:37:16.502Z,15.6
2018-10-11T02:37:57.043Z,15.71
2018-10-11T02:38:37.430Z,15.71
2018-10-11T02:39:17.758Z,15.64
2018-10-11T02:39:58.268Z,15.66
2018-10-11T02:40:38.581Z,15.64
2018-10-11T02:41:19.059Z,15.55
2018-10-11T02:41:59.507Z,15.58
2018-10-11T02:42:39.953Z,15.6
2018-10-11T02:43:20.340Z,15.58
2018-10-11T02:44:00.771Z,15.59
2018-10-11T02:44:41.158Z,15.6
2018-10-11T02:45:21.682Z,15.51
2018-10-11T02:46:02.367Z,15.56
2018-10-11T02:46:42.597Z,15.51
2018-10-11T02:47:22.993Z,15.64
2018-10-11T02:48:03.472Z,15.46
2018-10-11T02:48:43.793Z,15.46
2018-10-11T02:49:24.338Z,15.55
2018-10-11T02:50:04.743Z,15.44
2018-10-11T02:50:45.183Z,15.4
2018-10-11T02:51:25.669Z,15.43
2018-10-11T02:52:06.000Z,15.49
2018-10-11T02:52:46.504Z,15.4
2018-10-11T02:53:26.944Z,15.41
2018-10-11T02:54:07.365Z,15.44
2018-10-11T02:54:47.730Z,15.46
2018-10-11T02:55:28.172Z,15.44
2018-10-11T02:56:08.530Z,15.4
2018-10-11T02:56:48.997Z,15.38
2018-10-11T02:57:29.395Z,15.43
2018-10-11T02:58:09.813Z,15.38
2018-10-11T02:58:50.183Z,15.46
2018-10-11T02:59:30.649Z,15.4
2018-10-11T03:00:10.989Z,15.38
2018-10-11T03:00:51.504Z,15.43
2018-10-11T03:01:31.916Z,15.4
2018-10-11T03:02:12.235Z,15.52
2018-10-11T03:02:52.692Z,15.52
2018-10-11T03:03:33.126Z,15.56
2018-10-11T03:04:13.625Z,15.49
2018-10-11T03:04:54.000Z,15.56
2018-10-11T03:05:34.391Z,15.58
2018-10-11T03:06:14.852Z,15.55
2018-10-11T03:06:55.341Z,15.53
2018-10-11T03:07:35.712Z,15.53
2018-10-11T03:08:15.989Z,15.53
2018-10-11T03:08:56.505Z,15.48
2018-10-11T03:09:36.972Z,15.41
2018-10-11T03:10:17.688Z,15.44
2018-10-11T03:10:57.880Z,15.41
2018-10-11T03:11:38.241Z,15.4
2018-10-11T03:12:18.765Z,15.4
2018-10-11T03:12:59.398Z,15.48
2018-10-11T03:13:39.603Z,15.4
2018-10-11T03:14:20.072Z,15.35
2018-10-11T03:15:00.447Z,15.41
2018-10-11T03:15:40.797Z,15.41
2018-10-11T03:16:21.272Z,15.44
2018-10-11T03:17:01.754Z,15.4
2018-10-11T03:17:42.172Z,15.44
2018-10-11T03:18:22.679Z,15.37
2018-10-11T03:19:03.087Z,15.41
2018-10-11T03:19:43.511Z,15.46
2018-10-11T03:20:24.029Z,15.52
2018-10-11T03:21:04.573Z,15.44
2018-10-11T03:21:44.958Z,15.53
2018-10-11T03:22:25.517Z,15.52
2018-10-11T03:23:05.865Z,15.52
2018-10-11T03:23:46.216Z,15.48
2018-10-11T03:24:26.657Z,15.44
2018-10-11T03:25:07.017Z,15.53
2018-10-11T03:25:47.532Z,15.55
2018-10-11T03:26:27.934Z,15.55
2018-10-11T03:27:08.440Z,15.52
2018-10-11T03:27:48.867Z,15.58
2018-10-11T03:28:29.620Z,15.49
2018-10-11T03:29:09.948Z,15.53
2018-10-11T03:29:50.406Z,15.48
2018-10-11T03:30:30.864Z,15.52
2018-10-11T03:31:11.282Z,15.64
2018-10-11T03:31:51.611Z,15.48
2018-10-11T03:32:32.027Z,15.51
2018-10-11T03:33:12.504Z,15.53
2018-10-11T03:33:52.916Z,15.51
2018-10-11T03:34:33.426Z,15.52
2018-10-11T03:35:13.847Z,15.52
2018-10-11T03:35:54.296Z,15.38
2018-10-11T03:36:34.695Z,15.41
2018-10-11T03:37:15.038Z,15.52
2018-10-11T03:37:55.684Z,15.44
2018-10-11T03:38:36.054Z,15.41
2018-10-11T03:39:16.387Z,15.43
2018-10-11T03:39:56.843Z,15.4
2018-10-11T03:40:37.178Z,15.49
2018-10-11T03:41:17.972Z,15.44
2018-10-11T03:41:58.836Z,15.4
2018-10-11T03:42:39.439Z,15.4
2018-10-11T03:43:19.613Z,15.35
2018-10-11T03:44:00.428Z,15.31
2018-10-11T03:44:40.499Z,15.33
2018-10-11T03:45:20.909Z,15.31
2018-10-11T03:46:01.347Z,15.34
2018-10-11T03:46:41.817Z,15.33
2018-10-11T03:47:22.129Z,15.37
2018-10-11T03:48:02.544Z,15.33
2018-10-11T03:48:42.918Z,15.34
2018-10-11T03:49:23.326Z,15.31
2018-10-11T03:50:03.728Z,15.37
2018-10-11T03:50:44.107Z,15.4
2018-10-11T03:51:24.479Z,15.4
2018-10-11T03:52:04.946Z,15.38
2018-10-11T03:52:45.351Z,15.4
2018-10-11T03:53:25.739Z,15.31
2018-10-11T03:54:06.176Z,15.34
2018-10-11T03:54:46.542Z,15.37
2018-10-11T03:55:26.955Z,15.41
2018-10-11T03:56:07.318Z,15.44
2018-10-11T03:56:47.756Z,15.38
2018-10-11T03:57:28.195Z,15.49
2018-10-11T03:58:08.559Z,15.51
2018-10-11T03:58:48.951Z,15.49
2018-10-11T03:59:29.424Z,15.51
2018-10-11T04:00:09.812Z,15.53
2018-10-11T04:00:50.172Z,15.52
2018-10-11T04:01:30.607Z,15.55
2018-10-11T04:02:11.037Z,15.55
2018-10-11T04:02:51.400Z,15.53
2018-10-11T04:03:31.815Z,15.55
2018-10-11T04:04:12.174Z,15.51
2018-10-11T04:04:52.665Z,15.49
2018-10-11T04:05:33.032Z,15.59
2018-10-11T04:06:13.421Z,15.48
2018-10-11T04:06:53.738Z,15.51
2018-10-11T04:07:34.337Z,15.55
2018-10-11T04:08:14.646Z,15.51
2018-10-11T04:08:55.104Z,15.51
2018-10-11T04:09:35.471Z,15.51
2018-10-11T04:10:15.877Z,15.46
2018-10-11T04:10:56.331Z,15.52
2018-10-11T04:11:36.712Z,15.49
2018-10-11T04:12:17.222Z,15.56
2018-10-11T04:12:57.491Z,15.55
2018-10-11T04:13:37.896Z,15.53
2018-10-11T04:14:18.295Z,15.55
2018-10-11T04:14:58.718Z,15.4
2018-10-11T04:15:39.297Z,15.44
2018-10-11T04:16:19.523Z,15.44
2018-10-11T04:17:00.122Z,15.38
2018-10-11T04:17:40.545Z,15.35
2018-10-11T04:18:20.974Z,15.43
2018-10-11T04:19:01.357Z,15.44
2018-10-11T04:19:41.798Z,15.34
2018-10-11T04:20:22.213Z,15.35
2018-10-11T04:21:02.623Z,15.38
2018-10-11T04:21:43.025Z,15.37
2018-10-11T04:22:23.465Z,15.37
2018-10-11T04:23:03.894Z,15.38
2018-10-11T04:23:44.306Z,15.37
2018-10-11T04:24:24.759Z,15.33
2018-10-11T04:25:05.371Z,15.41
2018-10-11T04:25:45.839Z,15.41
2018-10-11T04:26:26.449Z,15.43
2018-10-11T04:27:06.888Z,15.43
2018-10-11T05:06:29.884Z,14.27
2018-10-11T05:07:10.252Z,14.35
2018-10-11T05:09:06.049Z,14.39
2018-10-11T05:09:49.045Z,14.38
2018-10-11T05:10:29.420Z,14.36
2018-10-11T05:11:09.855Z,14.36
2018-10-11T05:11:50.188Z,14.27
2018-10-11T05:12:30.601Z,14.45
2018-10-11T05:13:11.013Z,14.45
2018-10-11T05:13:51.469Z,14.46
2018-10-11T05:14:31.883Z,14.42
2018-10-11T05:15:12.314Z,14.45
2018-10-11T05:15:52.704Z,14.49
2018-10-11T05:16:33.155Z,14.48
2018-10-11T05:19:54.225Z,14.56
2018-10-11T05:23:31.188Z,14.78
2018-10-11T05:25:33.674Z,15
2018-10-11T05:26:14.129Z,14.91
2018-10-11T05:26:54.612Z,14.98
2018-10-11T05:27:35.113Z,15.11
2018-10-11T05:28:15.621Z,15.09
2018-10-11T05:33:33.649Z,15.38
2018-10-11T05:34:28.404Z,15.43
2018-10-11T05:35:08.777Z,15.38
2018-10-11T05:35:49.256Z,15.52
2018-10-11T05:36:29.738Z,15.51
2018-10-11T05:37:10.193Z,15.53
2018-10-11T05:37:50.763Z,15.55
2018-10-11T05:38:31.629Z,15.59
2018-10-11T05:39:12.043Z,15.6
2018-10-11T05:39:52.486Z,15.64
2018-10-11T05:43:22.195Z,15.77
2018-10-11T05:45:03.860Z,15.85
2018-10-11T05:45:59.989Z,15.91
2018-10-11T05:47:14.426Z,15.98
2018-10-11T05:48:56.729Z,15.95
2018-10-11T05:49:51.379Z,15.93
2018-10-11T05:50:43.927Z,15.98
2018-10-11T05:51:36.326Z,15.93
2018-10-11T05:53:44.399Z,15.88
2018-10-11T05:54:24.756Z,15.84
2018-10-11T05:55:05.164Z,15.86
2018-10-11T05:56:45.722Z,15.8
2018-10-11T05:57:26.178Z,15.81
2018-10-11T05:58:06.727Z,15.88
2018-10-11T05:58:47.260Z,15.85
2018-10-11T05:59:27.706Z,15.8
2018-10-11T06:00:08.143Z,15.71
2018-10-11T06:00:48.572Z,15.71
2018-10-11T06:01:29.116Z,15.73
2018-10-11T06:02:09.696Z,15.59
2018-10-11T06:02:50.143Z,15.55
2018-10-11T06:03:30.674Z,15.62
2018-10-11T06:04:11.319Z,15.52
2018-10-11T06:04:51.744Z,15.56
2018-10-11T06:05:32.204Z,15.56
2018-10-11T06:06:12.697Z,15.6
2018-10-11T06:06:53.438Z,15.59
2018-10-11T06:07:33.836Z,15.59
2018-10-11T06:08:14.350Z,15.66
2018-10-11T06:08:54.981Z,15.66
2018-10-11T06:09:35.413Z,15.71
2018-10-11T06:10:15.984Z,15.74
2018-10-11T06:12:12.757Z,15.86
2018-10-11T06:13:05.399Z,15.96
2018-10-11T06:13:58.673Z,16.03
2018-10-11T06:14:53.887Z,16.04
2018-10-11T06:15:46.275Z,16.23
2018-10-11T06:16:38.350Z,16.22
2018-10-11T06:20:18.217Z,16.55
2018-10-11T06:20:58.412Z,16.59
2018-10-11T06:29:23.771Z,17.27
2018-10-11T06:30:16.060Z,17.35
2018-10-11T06:31:08.562Z,17.38
2018-10-11T06:32:01.163Z,17.51
2018-10-11T06:32:54.933Z,17.55
2018-10-11T06:33:47.576Z,17.55
2018-10-11T06:34:40.655Z,17.53
2018-10-11T06:35:35.002Z,17.7
2018-10-11T06:36:28.718Z,17.66
2018-10-11T06:37:21.889Z,17.77
2018-10-11T06:38:14.664Z,17.83
2018-10-11T06:39:07.216Z,17.84
2018-10-11T06:40:00.881Z,17.95
2018-10-11T06:42:35.970Z,18.14
2018-10-11T06:43:29.046Z,18.28
2018-10-11T06:44:22.469Z,18.23
2018-10-11T06:45:15.133Z,18.31
2018-10-11T06:46:08.107Z,18.34
2018-10-11T06:47:00.402Z,18.35
2018-10-11T06:47:52.922Z,18.35
2018-10-11T06:48:45.106Z,18.5
2018-10-11T06:49:37.515Z,18.54
2018-10-11T06:50:30.093Z,18.65
2018-10-11T06:51:22.452Z,18.72
2018-10-11T06:52:19.816Z,18.68
2018-10-11T06:53:12.274Z,18.82
2018-10-11T06:54:12.262Z,18.9
2018-10-11T06:56:04.274Z,18.82
2018-10-11T06:56:44.715Z,18.9
2018-10-11T06:57:25.331Z,18.84
2018-10-11T06:58:05.873Z,18.87
2018-10-11T06:58:46.229Z,18.96
2018-10-11T06:59:26.773Z,18.94
2018-10-11T07:01:45.529Z,19.21
2018-10-11T07:02:43.472Z,19.28
2018-10-11T07:03:36.996Z,19.5
2018-10-11T07:04:30.568Z,19.55
2018-10-11T07:05:25.911Z,19.64
2018-10-11T07:06:20.622Z,19.58
2018-10-11T07:07:14.013Z,19.75
2018-10-11T07:08:07.072Z,19.75
2018-10-11T07:08:59.468Z,19.89
2018-10-11T07:09:52.048Z,19.79
2018-10-11T07:10:44.970Z,19.76
2018-10-11T07:11:37.222Z,19.75
2018-10-11T07:12:29.031Z,19.8
2018-10-11T07:13:21.161Z,19.79
2018-10-11T07:14:13.600Z,19.83
2018-10-11T07:15:06.028Z,19.9
2018-10-11T07:17:16.232Z,19.79
2018-10-11T07:18:10.485Z,19.71
2018-10-11T07:19:03.755Z,19.83
2018-10-11T07:19:57.050Z,19.72
2018-10-11T07:20:50.102Z,19.71
2018-10-11T07:21:42.657Z,19.68
2018-10-11T07:22:35.077Z,19.72
2018-10-11T07:23:28.682Z,19.6
2018-10-11T07:24:22.715Z,19.57
2018-10-11T07:25:15.478Z,19.49
2018-10-11T07:26:07.874Z,19.4
2018-10-11T07:27:01.123Z,19.31
2018-10-11T07:27:54.301Z,19.27
2018-10-11T07:28:47.071Z,19.27
2018-10-11T07:29:38.535Z,19.24
2018-10-11T07:31:21.390Z,19.3
2018-10-11T07:32:14.060Z,19.35
2018-10-11T07:33:06.219Z,19.5
2018-10-11T07:33:58.893Z,19.49
2018-10-11T07:34:51.538Z,19.58
2018-10-11T07:35:45.984Z,19.67
2018-10-11T07:36:40.099Z,19.75
2018-10-11T07:37:35.257Z,19.78
2018-10-11T07:38:30.420Z,19.79
2018-10-11T07:39:24.464Z,19.89
2018-10-11T07:41:28.441Z,19.92
2018-10-11T07:42:22.384Z,19.92
2018-10-11T07:43:16.891Z,20
2018-10-11T07:44:10.321Z,20.05
2018-10-11T07:45:05.136Z,20.13
2018-10-11T07:45:59.333Z,20.38
2018-10-11T07:46:53.231Z,20.5
2018-10-11T07:47:48.189Z,20.81
2018-10-11T07:48:41.704Z,21.09
2018-10-11T07:49:34.974Z,21.22
2018-10-11T07:50:41.225Z,21.19
2018-10-11T07:51:33.107Z,21.15
2018-10-11T07:52:27.468Z,21.12
2018-10-11T07:53:19.706Z,21.28
2018-10-11T07:54:12.856Z,21.21
2018-10-11T07:55:05.206Z,21.38
2018-10-11T07:56:02.291Z,21.64
2018-10-11T07:56:59.357Z,21.77
2018-10-11T07:57:53.746Z,21.93
2018-10-11T07:58:37.237Z,22.09
2018-10-11T07:59:21.240Z,22.04
2018-10-11T08:00:03.559Z,22.08
2018-10-11T08:00:45.609Z,22.36
2018-10-11T08:01:27.870Z,22.48
2018-10-11T08:03:49.156Z,22.97
2018-10-11T08:04:50.592Z,22.96
2018-10-11T08:05:49.103Z,22.81
2018-10-11T08:06:44.956Z,22.38
2018-10-11T08:07:38.618Z,22.23
2018-10-11T08:08:35.831Z,22.31
2018-10-11T08:09:32.458Z,22.41
2018-10-11T08:10:27.771Z,22.2
2018-10-11T08:11:20.486Z,21.99
2018-10-11T08:12:12.838Z,21.83
2018-10-11T08:13:09.133Z,21.74
2018-10-11T08:14:02.117Z,21.64
2018-10-11T08:14:56.291Z,21.67
2018-10-11T08:15:54.183Z,21.67
2018-10-11T08:16:56.874Z,21.75
2018-10-11T08:18:01.396Z,21.86
2018-10-11T08:18:59.854Z,21.96
2018-10-11T08:19:53.378Z,22.02
2018-10-11T08:20:48.147Z,22.04
2018-10-11T08:21:40.960Z,22.02
2018-10-11T08:22:38.372Z,21.93
2018-10-11T08:23:34.160Z,21.96
2018-10-11T08:24:31.633Z,22.01
2018-10-11T08:25:24.352Z,22.09
2018-10-11T08:26:17.955Z,22.12
2018-10-11T08:27:11.021Z,22.12
2018-10-11T08:29:36.664Z,22.19
2018-10-11T08:30:19.598Z,22.12
2018-10-11T08:31:01.430Z,22.09
2018-10-11T08:31:45.419Z,21.91
2018-10-11T08:32:26.730Z,22.06
2018-10-11T08:33:07.782Z,21.94
2018-10-11T08:33:48.540Z,21.94
2018-10-11T08:40:26.103Z,21.73
2018-10-11T08:41:34.253Z,21.7
2018-10-11T08:43:41.627Z,21.67
2018-10-11T08:44:42.390Z,21.85
2018-10-11T08:46:24.611Z,21.9
2018-10-11T08:48:39.056Z,22.08
2018-10-11T08:49:39.244Z,22.36
2018-10-11T08:50:42.844Z,22.44
2018-10-11T08:58:18.336Z,22.97
2018-10-11T09:03:25.474Z,22.61
2018-10-11T09:09:40.302Z,22.78
2018-10-11T09:11:22.325Z,22.86
2018-10-11T09:16:32.579Z,22.76
2018-10-11T09:18:34.973Z,22.75
2018-10-11T09:19:14.597Z,22.84
2018-10-11T09:19:55.079Z,22.78
2018-10-11T09:20:35.554Z,22.91
2018-10-11T09:21:16.177Z,22.96
2018-10-11T09:21:56.894Z,22.91
2018-10-11T09:22:37.239Z,22.99
2018-10-11T09:23:18.602Z,23.15
2018-10-11T09:23:58.917Z,23.15
2018-10-11T09:24:39.430Z,23.15
2018-10-11T09:25:19.902Z,23.07
2018-10-11T09:26:00.842Z,23.14
2018-10-11T09:26:41.513Z,23.14
2018-10-11T09:27:21.893Z,23.12
2018-10-11T09:28:02.278Z,23.19
2018-10-11T09:28:42.663Z,23.22
2018-10-11T09:29:23.075Z,23.32
2018-10-11T09:30:03.547Z,23.41
2018-10-11T09:30:43.908Z,23.45
2018-10-11T09:31:24.333Z,23.39
2018-10-11T09:32:04.907Z,23.42
2018-10-11T09:32:45.352Z,23.53
2018-10-11T09:33:25.764Z,23.56
2018-10-11T09:34:06.336Z,23.57
2018-10-11T09:34:47.124Z,23.54
2018-10-11T09:35:27.499Z,23.53
2018-10-11T09:36:08.076Z,23.47
2018-10-11T09:36:48.921Z,23.54
2018-10-11T09:37:29.434Z,23.52
2018-10-11T09:38:12.280Z,23.56
2018-10-11T09:38:54.090Z,23.68
2018-10-11T09:39:33.350Z,23.77
2018-10-11T09:40:13.860Z,23.92
2018-10-11T09:40:54.337Z,24.14
2018-10-11T09:41:34.943Z,24.18
2018-10-11T09:42:15.656Z,24.24
2018-10-11T09:42:56.498Z,24.31
2018-10-11T09:43:36.989Z,24.44
2018-10-11T09:44:17.771Z,24.49
2018-10-11T09:44:59.215Z,24.55
2018-10-11T09:45:39.862Z,24.61
2018-10-11T09:46:20.403Z,24.51
2018-10-11T09:47:00.949Z,24.61
2018-10-11T09:47:41.349Z,24.56
2018-10-11T09:49:21.754Z,24.6
2018-10-11T09:50:17.865Z,24.67
2018-10-11T09:51:02.405Z,24.66
2018-10-11T09:51:42.126Z,24.7
2018-10-11T09:52:22.468Z,24.8
2018-10-11T09:53:02.931Z,24.63
2018-10-11T09:55:20.290Z,24.19
2018-10-11T09:55:59.590Z,24.18
2018-10-11T09:56:42.854Z,24.19
2018-10-11T09:57:23.420Z,24.19
2018-10-11T09:58:03.912Z,24.12
2018-10-11T09:58:44.924Z,24.14
2018-10-11T09:59:25.553Z,24.06
2018-10-11T10:00:08.200Z,23.96
2018-10-11T10:00:51.901Z,23.96
2018-10-11T10:01:33.380Z,23.79
2018-10-11T10:02:21.966Z,23.71
2018-10-11T10:03:14.005Z,23.79
2018-10-11T10:04:00.390Z,23.72
2018-10-11T10:04:41.696Z,23.74
2018-10-11T10:05:28.316Z,23.79
2018-10-11T10:06:09.319Z,23.84
2018-10-11T10:06:52.702Z,23.92
2018-10-11T10:07:33.390Z,24.16
2018-10-11T10:08:14.727Z,24.23
2018-10-11T10:08:55.546Z,24.3
2018-10-11T10:10:38.959Z,24.64
2018-10-11T10:11:19.373Z,24.82
2018-10-11T10:12:03.099Z,24.94
2018-10-11T10:12:45.423Z,24.93
2018-10-11T10:13:31.639Z,25.07
2018-10-11T10:15:31.208Z,25.49
2018-10-11T10:17:24.670Z,25.36
2018-10-11T10:18:27.279Z,25.49
2018-10-11T10:20:23.827Z,25.56
2018-10-11T10:21:27.818Z,25.56
2018-10-11T10:23:29.457Z,25.6
2018-10-11T10:28:16.715Z,25.72
2018-10-11T11:07:18.334Z,23.19
2018-10-11T11:09:00.239Z,23.04
2018-10-11T11:11:44.153Z,23.07
2018-10-11T11:13:31.096Z,23.04
2018-10-11T11:15:18.080Z,23.18
2018-10-11T11:24:14.577Z,23.38
2018-10-11T11:26:10.691Z,23.39
2018-10-11T11:26:51.596Z,23.41
2018-10-11T11:27:32.108Z,23.44
2018-10-11T11:28:12.613Z,23.47
2018-10-11T11:28:56.642Z,23.53
2018-10-11T11:29:37.399Z,23.42
2018-10-11T11:30:18.962Z,23.57
2018-10-11T11:30:58.622Z,23.68
2018-10-11T11:31:40.199Z,23.75
2018-10-11T11:32:23.349Z,23.78
2018-10-11T11:33:03.392Z,23.84
2018-10-11T11:33:44.859Z,23.86
2018-10-11T11:34:27.196Z,23.84
2018-10-11T11:36:10.327Z,23.87
2018-10-11T11:38:14.419Z,23.86
2018-10-11T11:40:07.941Z,23.77
2018-10-11T11:42:18.707Z,23.44
2018-10-11T11:45:06.547Z,23.63
2018-10-11T11:47:14.033Z,23.53
2018-10-11T11:48:54.949Z,23.54
2018-10-11T11:49:34.541Z,23.49
2018-10-11T11:50:14.916Z,23.56
2018-10-11T11:50:55.463Z,23.56
2018-10-11T11:51:36.796Z,23.41
2018-10-11T11:52:19.528Z,23.56
2018-10-11T11:52:59.771Z,23.57
2018-10-11T11:53:40.809Z,23.57
2018-10-11T11:54:21.356Z,23.47
2018-10-11T11:55:01.802Z,23.62
2018-10-11T11:55:42.300Z,23.59
2018-10-11T11:56:23.097Z,23.59
2018-10-11T11:57:03.707Z,23.42
2018-10-11T11:57:44.836Z,23.42
2018-10-11T11:58:26.816Z,23.39
2018-10-11T11:59:07.794Z,23.47
2018-10-11T11:59:48.575Z,23.52
2018-10-11T12:00:28.664Z,23.42
2018-10-11T12:01:09.508Z,23.42
2018-10-11T12:01:49.924Z,23.32
2018-10-11T12:02:30.527Z,23.34
2018-10-11T12:03:12.939Z,23.23
2018-10-11T12:03:53.473Z,23.21
2018-10-11T12:04:34.115Z,23.21
2018-10-11T12:05:15.062Z,23.15
2018-10-11T12:05:57.116Z,23.03
2018-10-11T12:06:37.622Z,23.14
2018-10-11T12:07:18.404Z,23.12
2018-10-11T12:07:59.014Z,23.22
2018-10-11T12:08:39.756Z,23.26
2018-10-11T12:09:56.617Z,23.37
2018-10-11T12:10:37.832Z,23.31
2018-10-11T12:11:18.354Z,23.42
2018-10-11T12:11:59.076Z,23.34
2018-10-11T12:12:40.371Z,23.38
2018-10-11T12:13:23.833Z,23.39
2018-10-11T12:14:04.443Z,23.38
2018-10-11T12:14:45.100Z,23.49
2018-10-11T12:15:25.797Z,23.54
2018-10-11T12:16:07.933Z,23.45
2018-10-11T12:16:49.789Z,23.56
2018-10-11T12:17:32.163Z,23.57
2018-10-11T12:18:13.384Z,23.56
2018-10-11T12:18:53.531Z,23.47
2018-10-11T12:19:34.849Z,23.6
2018-10-11T12:20:15.054Z,23.59
2018-10-11T12:20:56.217Z,23.59
2018-10-11T12:21:37.106Z,23.54
2018-10-11T12:22:17.677Z,23.56
2018-10-11T12:22:59.038Z,23.54
2018-10-11T12:23:39.577Z,23.47
2018-10-11T12:24:20.453Z,23.57
2018-10-11T12:25:02.282Z,23.44
2018-10-11T12:25:42.678Z,23.5
2018-10-11T12:26:24.296Z,23.62
2018-10-11T12:27:05.676Z,23.67
2018-10-11T12:28:47.962Z,23.64